sensor_id;sensor_type;location;lat;lon;timestamp;P1;durP1;ratioP1;P2;durP2;ratioP2
36321;SDS011;23564;48.290;11.460;2023-02-01T00:00:15;6.88;;;3.63;;
36321;SDS011;23564;48.290;11.460;2023-02-01T00:02:41;8.00;;;3.80;;
36321;SDS011;23564;48.290;11.460;2023-02-01T00:05:08;8.80;;;3.88;;
36321;SDS011;23564;48.290;11.460;2023-02-01T00:07:34;9.32;;;3.78;;
36321;SDS011;23564;48.290;11.460;2023-02-01T00:10:00;7.88;;;3.55;;
36321;SDS011;23564;48.290;11.460;2023-02-01T00:12:26;9.70;;;3.97;;
36321;SDS011;23564;48.290;11.460;2023-02-01T00:14:52;6.50;;;3.47;;
36321;SDS011;23564;48.290;11.460;2023-02-01T00:17:17;6.85;;;3.28;;
36321;SDS011;23564;48.290;11.460;2023-02-01T00:19:43;8.25;;;3.88;;
36321;SDS011;23564;48.290;11.460;2023-02-01T00:22:08;6.05;;;3.55;;
36321;SDS011;23564;48.290;11.460;2023-02-01T00:24:34;6.93;;;3.53;;
36321;SDS011;23564;48.290;11.460;2023-02-01T00:26:59;10.10;;;3.63;;
36321;SDS011;23564;48.290;11.460;2023-02-01T00:29:25;8.10;;;3.63;;
36321;SDS011;23564;48.290;11.460;2023-02-01T00:31:51;10.70;;;4.22;;
36321;SDS011;23564;48.290;11.460;2023-02-01T00:34:17;9.05;;;3.97;;
36321;SDS011;23564;48.290;11.460;2023-02-01T00:36:43;10.55;;;4.35;;
36321;SDS011;23564;48.290;11.460;2023-02-01T00:39:09;9.50;;;4.35;;
36321;SDS011;23564;48.290;11.460;2023-02-01T00:41:35;9.88;;;4.78;;
36321;SDS011;23564;48.290;11.460;2023-02-01T00:44:01;9.85;;;4.80;;
36321;SDS011;23564;48.290;11.460;2023-02-01T00:46:27;10.15;;;4.82;;
36321;SDS011;23564;48.290;11.460;2023-02-01T00:48:53;10.27;;;4.75;;
36321;SDS011;23564;48.290;11.460;2023-02-01T00:51:20;11.15;;;5.00;;
36321;SDS011;23564;48.290;11.460;2023-02-01T00:53:47;16.42;;;6.70;;
36321;SDS011;23564;48.290;11.460;2023-02-01T00:56:12;10.55;;;5.72;;
36321;SDS011;23564;48.290;11.460;2023-02-01T00:58:38;13.20;;;5.93;;
36321;SDS011;23564;48.290;11.460;2023-02-01T01:01:14;12.57;;;6.13;;
36321;SDS011;23564;48.290;11.460;2023-02-01T01:03:46;11.70;;;5.85;;
36321;SDS011;23564;48.290;11.460;2023-02-01T01:06:16;17.33;;;6.25;;
36321;SDS011;23564;48.290;11.460;2023-02-01T01:08:45;10.20;;;6.03;;
36321;SDS011;23564;48.290;11.460;2023-02-01T01:11:12;11.50;;;6.45;;
36321;SDS011;23564;48.290;11.460;2023-02-01T01:13:40;15.05;;;6.60;;
36321;SDS011;23564;48.290;11.460;2023-02-01T01:16:07;13.10;;;6.60;;
36321;SDS011;23564;48.290;11.460;2023-02-01T01:18:34;11.70;;;6.75;;
36321;SDS011;23564;48.290;11.460;2023-02-01T01:21:00;15.73;;;6.68;;
36321;SDS011;23564;48.290;11.460;2023-02-01T01:23:26;14.23;;;5.70;;
36321;SDS011;23564;48.290;11.460;2023-02-01T01:25:52;17.23;;;6.75;;
36321;SDS011;23564;48.290;11.460;2023-02-01T01:28:18;13.98;;;6.68;;
36321;SDS011;23564;48.290;11.460;2023-02-01T01:30:44;11.90;;;6.63;;
36321;SDS011;23564;48.290;11.460;2023-02-01T01:33:10;13.48;;;6.22;;
36321;SDS011;23564;48.290;11.460;2023-02-01T01:35:35;11.82;;;6.45;;
36321;SDS011;23564;48.290;11.460;2023-02-01T01:38:01;13.55;;;6.47;;
36321;SDS011;23564;48.290;11.460;2023-02-01T01:40:27;18.55;;;7.13;;
36321;SDS011;23564;48.290;11.460;2023-02-01T01:42:53;13.60;;;6.80;;
36321;SDS011;23564;48.290;11.460;2023-02-01T01:47:54;13.23;;;6.78;;
36321;SDS011;23564;48.290;11.460;2023-02-01T01:50:24;12.23;;;6.68;;
36321;SDS011;23564;48.290;11.460;2023-02-01T01:52:55;12.80;;;6.05;;
36321;SDS011;23564;48.290;11.460;2023-02-01T01:55:22;12.52;;;7.07;;
36321;SDS011;23564;48.290;11.460;2023-02-01T01:57:52;14.35;;;6.88;;
36321;SDS011;23564;48.290;11.460;2023-02-01T02:00:24;15.95;;;6.53;;
36321;SDS011;23564;48.290;11.460;2023-02-01T02:02:53;13.60;;;6.85;;
36321;SDS011;23564;48.290;11.460;2023-02-01T02:05:23;10.63;;;6.32;;
36321;SDS011;23564;48.290;11.460;2023-02-01T02:07:50;12.70;;;6.13;;
36321;SDS011;23564;48.290;11.460;2023-02-01T02:10:18;12.00;;;6.97;;
36321;SDS011;23564;48.290;11.460;2023-02-01T02:12:45;15.77;;;8.13;;
36321;SDS011;23564;48.290;11.460;2023-02-01T02:15:13;18.08;;;7.00;;
36321;SDS011;23564;48.290;11.460;2023-02-01T02:20:45;11.85;;;6.22;;
36321;SDS011;23564;48.290;11.460;2023-02-01T02:32:27;12.70;;;6.07;;
36321;SDS011;23564;48.290;11.460;2023-02-01T02:35:16;12.00;;;5.97;;
36321;SDS011;23564;48.290;11.460;2023-02-01T02:38:03;14.70;;;6.28;;
36321;SDS011;23564;48.290;11.460;2023-02-01T02:40:40;13.32;;;6.95;;
36321;SDS011;23564;48.290;11.460;2023-02-01T02:43:32;16.05;;;6.72;;
36321;SDS011;23564;48.290;11.460;2023-02-01T02:46:47;14.38;;;6.70;;
36321;SDS011;23564;48.290;11.460;2023-02-01T02:49:36;14.52;;;6.78;;
36321;SDS011;23564;48.290;11.460;2023-02-01T02:52:09;11.05;;;5.95;;
36321;SDS011;23564;48.290;11.460;2023-02-01T02:54:58;11.80;;;7.00;;
36321;SDS011;23564;48.290;11.460;2023-02-01T02:57:28;10.07;;;5.03;;
36321;SDS011;23564;48.290;11.460;2023-02-01T03:00:21;12.07;;;6.05;;
36321;SDS011;23564;48.290;11.460;2023-02-01T03:03:08;13.93;;;5.72;;
36321;SDS011;23564;48.290;11.460;2023-02-01T03:05:53;11.98;;;6.45;;
36321;SDS011;23564;48.290;11.460;2023-02-01T03:08:19;14.35;;;6.45;;
36321;SDS011;23564;48.290;11.460;2023-02-01T03:21:44;10.75;;;5.60;;
36321;SDS011;23564;48.290;11.460;2023-02-01T03:24:25;14.60;;;5.80;;
36321;SDS011;23564;48.290;11.460;2023-02-01T03:30:20;11.48;;;6.13;;
36321;SDS011;23564;48.290;11.460;2023-02-01T03:32:47;10.68;;;5.53;;
36321;SDS011;23564;48.290;11.460;2023-02-01T03:38:19;9.70;;;5.13;;
36321;SDS011;23564;48.290;11.460;2023-02-01T03:41:12;11.25;;;5.45;;
36321;SDS011;23564;48.290;11.460;2023-02-01T03:43:49;10.40;;;5.75;;
36321;SDS011;23564;48.290;11.460;2023-02-01T03:46:28;10.95;;;5.93;;
36321;SDS011;23564;48.290;11.460;2023-02-01T03:48:59;10.95;;;5.45;;
36321;SDS011;23564;48.290;11.460;2023-02-01T03:51:31;11.95;;;5.45;;
36321;SDS011;23564;48.290;11.460;2023-02-01T03:53:58;11.90;;;5.07;;
36321;SDS011;23564;48.290;11.460;2023-02-01T03:56:25;12.52;;;5.30;;
36321;SDS011;23564;48.290;11.460;2023-02-01T03:58:53;10.15;;;5.65;;
36321;SDS011;23564;48.290;11.460;2023-02-01T04:01:26;11.93;;;5.30;;
36321;SDS011;23564;48.290;11.460;2023-02-01T04:03:56;11.85;;;5.28;;
36321;SDS011;23564;48.290;11.460;2023-02-01T04:06:22;10.07;;;5.45;;
36321;SDS011;23564;48.290;11.460;2023-02-01T04:08:48;10.93;;;5.13;;
36321;SDS011;23564;48.290;11.460;2023-02-01T04:11:14;11.00;;;4.82;;
36321;SDS011;23564;48.290;11.460;2023-02-01T04:13:40;11.57;;;5.05;;
36321;SDS011;23564;48.290;11.460;2023-02-01T04:16:06;9.73;;;4.85;;
36321;SDS011;23564;48.290;11.460;2023-02-01T04:18:31;8.48;;;4.97;;
36321;SDS011;23564;48.290;11.460;2023-02-01T04:20:57;9.25;;;4.75;;
36321;SDS011;23564;48.290;11.460;2023-02-01T04:23:22;9.80;;;4.95;;
36321;SDS011;23564;48.290;11.460;2023-02-01T04:25:48;9.88;;;4.72;;
36321;SDS011;23564;48.290;11.460;2023-02-01T04:28:13;11.88;;;5.07;;
36321;SDS011;23564;48.290;11.460;2023-02-01T04:30:39;7.45;;;4.38;;
36321;SDS011;23564;48.290;11.460;2023-02-01T04:33:04;12.82;;;4.65;;
36321;SDS011;23564;48.290;11.460;2023-02-01T04:35:30;8.30;;;4.75;;
36321;SDS011;23564;48.290;11.460;2023-02-01T04:37:56;8.88;;;4.50;;
36321;SDS011;23564;48.290;11.460;2023-02-01T04:40:21;8.52;;;4.80;;
36321;SDS011;23564;48.290;11.460;2023-02-01T04:42:47;9.77;;;4.80;;
36321;SDS011;23564;48.290;11.460;2023-02-01T04:45:12;9.13;;;4.30;;
36321;SDS011;23564;48.290;11.460;2023-02-01T04:47:38;11.43;;;4.63;;
36321;SDS011;23564;48.290;11.460;2023-02-01T04:50:04;11.82;;;4.93;;
36321;SDS011;23564;48.290;11.460;2023-02-01T04:52:31;11.93;;;5.40;;
36321;SDS011;23564;48.290;11.460;2023-02-01T04:54:56;9.48;;;4.93;;
36321;SDS011;23564;48.290;11.460;2023-02-01T04:57:24;9.23;;;4.57;;
36321;SDS011;23564;48.290;11.460;2023-02-01T04:59:50;11.00;;;5.43;;
36321;SDS011;23564;48.290;11.460;2023-02-01T05:02:15;10.63;;;4.78;;
36321;SDS011;23564;48.290;11.460;2023-02-01T05:04:41;9.30;;;4.43;;
36321;SDS011;23564;48.290;11.460;2023-02-01T05:07:06;10.85;;;4.57;;
36321;SDS011;23564;48.290;11.460;2023-02-01T05:09:32;9.50;;;5.03;;
36321;SDS011;23564;48.290;11.460;2023-02-01T05:11:58;9.80;;;5.03;;
36321;SDS011;23564;48.290;11.460;2023-02-01T05:14:41;8.48;;;4.35;;
36321;SDS011;23564;48.290;11.460;2023-02-01T05:17:07;8.95;;;4.63;;
36321;SDS011;23564;48.290;11.460;2023-02-01T05:19:33;10.75;;;4.80;;
36321;SDS011;23564;48.290;11.460;2023-02-01T05:21:58;9.20;;;4.25;;
36321;SDS011;23564;48.290;11.460;2023-02-01T05:24:24;10.65;;;4.65;;
36321;SDS011;23564;48.290;11.460;2023-02-01T05:26:49;9.02;;;4.70;;
36321;SDS011;23564;48.290;11.460;2023-02-01T05:29:15;9.57;;;4.45;;
36321;SDS011;23564;48.290;11.460;2023-02-01T05:31:43;9.30;;;4.40;;
36321;SDS011;23564;48.290;11.460;2023-02-01T05:34:10;10.77;;;4.85;;
36321;SDS011;23564;48.290;11.460;2023-02-01T05:36:36;11.88;;;4.30;;
36321;SDS011;23564;48.290;11.460;2023-02-01T05:39:02;9.82;;;4.63;;
36321;SDS011;23564;48.290;11.460;2023-02-01T05:41:28;10.20;;;4.90;;
36321;SDS011;23564;48.290;11.460;2023-02-01T05:43:53;9.80;;;4.80;;
36321;SDS011;23564;48.290;11.460;2023-02-01T05:46:19;8.90;;;4.13;;
36321;SDS011;23564;48.290;11.460;2023-02-01T05:48:45;10.40;;;4.55;;
36321;SDS011;23564;48.290;11.460;2023-02-01T05:51:11;8.90;;;4.50;;
36321;SDS011;23564;48.290;11.460;2023-02-01T05:53:37;11.15;;;5.20;;
36321;SDS011;23564;48.290;11.460;2023-02-01T05:56:03;8.43;;;4.75;;
36321;SDS011;23564;48.290;11.460;2023-02-01T05:58:29;12.77;;;5.30;;
36321;SDS011;23564;48.290;11.460;2023-02-01T06:00:55;8.25;;;4.65;;
36321;SDS011;23564;48.290;11.460;2023-02-01T06:03:21;9.90;;;5.10;;
36321;SDS011;23564;48.290;11.460;2023-02-01T06:05:46;9.45;;;5.35;;
36321;SDS011;23564;48.290;11.460;2023-02-01T06:08:13;12.05;;;4.82;;
36321;SDS011;23564;48.290;11.460;2023-02-01T06:10:39;8.23;;;4.53;;
36321;SDS011;23564;48.290;11.460;2023-02-01T06:13:05;9.77;;;4.57;;
36321;SDS011;23564;48.290;11.460;2023-02-01T06:15:30;7.10;;;4.50;;
36321;SDS011;23564;48.290;11.460;2023-02-01T06:17:57;12.23;;;4.63;;
36321;SDS011;23564;48.290;11.460;2023-02-01T06:20:22;10.13;;;4.72;;
36321;SDS011;23564;48.290;11.460;2023-02-01T06:22:49;11.40;;;5.47;;
36321;SDS011;23564;48.290;11.460;2023-02-01T06:25:14;8.27;;;4.63;;
36321;SDS011;23564;48.290;11.460;2023-02-01T06:27:41;8.40;;;4.53;;
36321;SDS011;23564;48.290;11.460;2023-02-01T06:30:07;10.27;;;4.85;;
36321;SDS011;23564;48.290;11.460;2023-02-01T06:32:33;11.25;;;5.15;;
36321;SDS011;23564;48.290;11.460;2023-02-01T06:34:59;7.03;;;4.53;;
36321;SDS011;23564;48.290;11.460;2023-02-01T06:37:25;8.00;;;4.68;;
36321;SDS011;23564;48.290;11.460;2023-02-01T06:39:52;11.75;;;5.60;;
36321;SDS011;23564;48.290;11.460;2023-02-01T06:42:18;12.07;;;4.68;;
36321;SDS011;23564;48.290;11.460;2023-02-01T06:44:43;7.68;;;4.50;;
36321;SDS011;23564;48.290;11.460;2023-02-01T06:47:09;9.35;;;5.13;;
36321;SDS011;23564;48.290;11.460;2023-02-01T06:49:34;9.25;;;5.13;;
36321;SDS011;23564;48.290;11.460;2023-02-01T06:52:00;9.15;;;4.95;;
36321;SDS011;23564;48.290;11.460;2023-02-01T06:54:26;10.90;;;4.95;;
36321;SDS011;23564;48.290;11.460;2023-02-01T06:56:52;8.13;;;4.25;;
36321;SDS011;23564;48.290;11.460;2023-02-01T06:59:18;10.40;;;4.63;;
36321;SDS011;23564;48.290;11.460;2023-02-01T07:01:43;12.95;;;4.60;;
36321;SDS011;23564;48.290;11.460;2023-02-01T07:04:12;7.78;;;4.93;;
36321;SDS011;23564;48.290;11.460;2023-02-01T07:06:38;9.57;;;5.25;;
36321;SDS011;23564;48.290;11.460;2023-02-01T07:09:04;10.98;;;5.15;;
36321;SDS011;23564;48.290;11.460;2023-02-01T07:11:30;8.50;;;4.47;;
36321;SDS011;23564;48.290;11.460;2023-02-01T07:13:55;8.38;;;5.18;;
36321;SDS011;23564;48.290;11.460;2023-02-01T07:16:21;8.43;;;5.30;;
36321;SDS011;23564;48.290;11.460;2023-02-01T07:18:47;11.25;;;5.35;;
36321;SDS011;23564;48.290;11.460;2023-02-01T07:21:14;9.80;;;4.70;;
36321;SDS011;23564;48.290;11.460;2023-02-01T07:23:40;11.15;;;5.18;;
36321;SDS011;23564;48.290;11.460;2023-02-01T07:26:06;8.63;;;4.50;;
36321;SDS011;23564;48.290;11.460;2023-02-01T07:28:35;9.45;;;4.95;;
36321;SDS011;23564;48.290;11.460;2023-02-01T07:33:46;9.77;;;4.95;;
36321;SDS011;23564;48.290;11.460;2023-02-01T07:36:14;11.23;;;4.07;;
36321;SDS011;23564;48.290;11.460;2023-02-01T07:38:41;6.78;;;3.97;;
36321;SDS011;23564;48.290;11.460;2023-02-01T07:41:07;9.63;;;3.67;;
36321;SDS011;23564;48.290;11.460;2023-02-01T07:43:33;7.97;;;4.00;;
36321;SDS011;23564;48.290;11.460;2023-02-01T07:45:59;7.68;;;3.63;;
36321;SDS011;23564;48.290;11.460;2023-02-01T07:48:26;8.35;;;3.85;;
36321;SDS011;23564;48.290;11.460;2023-02-01T07:51:02;6.22;;;3.55;;
36321;SDS011;23564;48.290;11.460;2023-02-01T07:53:30;8.95;;;3.70;;
36321;SDS011;23564;48.290;11.460;2023-02-01T07:55:56;9.05;;;3.67;;
36321;SDS011;23564;48.290;11.460;2023-02-01T07:58:22;7.18;;;3.53;;
36321;SDS011;23564;48.290;11.460;2023-02-01T08:00:49;5.30;;;3.25;;
36321;SDS011;23564;48.290;11.460;2023-02-01T08:03:33;5.93;;;3.58;;
36321;SDS011;23564;48.290;11.460;2023-02-01T08:05:58;8.98;;;3.67;;
36321;SDS011;23564;48.290;11.460;2023-02-01T08:08:24;7.25;;;3.13;;
36321;SDS011;23564;48.290;11.460;2023-02-01T08:10:49;5.40;;;3.30;;
36321;SDS011;23564;48.290;11.460;2023-02-01T08:13:15;7.28;;;3.38;;
36321;SDS011;23564;48.290;11.460;2023-02-01T08:15:41;8.60;;;3.60;;
36321;SDS011;23564;48.290;11.460;2023-02-01T08:18:07;7.25;;;3.20;;
36321;SDS011;23564;48.290;11.460;2023-02-01T08:20:34;5.82;;;3.25;;
36321;SDS011;23564;48.290;11.460;2023-02-01T08:23:01;5.72;;;2.63;;
36321;SDS011;23564;48.290;11.460;2023-02-01T08:25:26;5.43;;;3.03;;
36321;SDS011;23564;48.290;11.460;2023-02-01T08:27:52;7.03;;;2.80;;
36321;SDS011;23564;48.290;11.460;2023-02-01T08:30:19;6.40;;;3.15;;
36321;SDS011;23564;48.290;11.460;2023-02-01T08:32:45;6.85;;;3.33;;
36321;SDS011;23564;48.290;11.460;2023-02-01T08:35:11;6.00;;;3.15;;
36321;SDS011;23564;48.290;11.460;2023-02-01T08:37:37;7.53;;;3.40;;
36321;SDS011;23564;48.290;11.460;2023-02-01T08:40:03;4.60;;;3.22;;
36321;SDS011;23564;48.290;11.460;2023-02-01T08:42:29;5.72;;;3.17;;
36321;SDS011;23564;48.290;11.460;2023-02-01T08:45:13;8.20;;;3.70;;
36321;SDS011;23564;48.290;11.460;2023-02-01T08:47:39;5.75;;;2.95;;
36321;SDS011;23564;48.290;11.460;2023-02-01T08:50:04;10.07;;;3.95;;
36321;SDS011;23564;48.290;11.460;2023-02-01T08:52:30;4.53;;;2.80;;
36321;SDS011;23564;48.290;11.460;2023-02-01T08:54:56;6.90;;;3.03;;
36321;SDS011;23564;48.290;11.460;2023-02-01T08:57:21;8.65;;;3.30;;
36321;SDS011;23564;48.290;11.460;2023-02-01T08:59:47;4.25;;;2.95;;
36321;SDS011;23564;48.290;11.460;2023-02-01T09:02:13;8.77;;;3.67;;
36321;SDS011;23564;48.290;11.460;2023-02-01T09:04:40;5.78;;;3.40;;
36321;SDS011;23564;48.290;11.460;2023-02-01T09:07:06;6.93;;;3.08;;
36321;SDS011;23564;48.290;11.460;2023-02-01T09:09:33;5.20;;;3.28;;
36321;SDS011;23564;48.290;11.460;2023-02-01T09:11:59;5.80;;;3.17;;
36321;SDS011;23564;48.290;11.460;2023-02-01T09:14:24;7.20;;;3.50;;
36321;SDS011;23564;48.290;11.460;2023-02-01T09:16:50;5.32;;;3.05;;
36321;SDS011;23564;48.290;11.460;2023-02-01T09:19:15;6.80;;;3.22;;
36321;SDS011;23564;48.290;11.460;2023-02-01T09:21:41;7.20;;;3.75;;
36321;SDS011;23564;48.290;11.460;2023-02-01T09:24:08;4.78;;;2.63;;
36321;SDS011;23564;48.290;11.460;2023-02-01T09:26:37;6.68;;;2.90;;
36321;SDS011;23564;48.290;11.460;2023-02-01T09:29:02;6.00;;;3.13;;
36321;SDS011;23564;48.290;11.460;2023-02-01T09:31:31;5.55;;;3.00;;
36321;SDS011;23564;48.290;11.460;2023-02-01T09:33:57;6.80;;;3.60;;
36321;SDS011;23564;48.290;11.460;2023-02-01T09:36:22;6.18;;;3.22;;
36321;SDS011;23564;48.290;11.460;2023-02-01T09:38:48;5.03;;;3.15;;
36321;SDS011;23564;48.290;11.460;2023-02-01T09:47:01;6.25;;;3.13;;
36321;SDS011;23564;48.290;11.460;2023-02-01T09:49:28;3.75;;;2.53;;
36321;SDS011;23564;48.290;11.460;2023-02-01T09:51:56;7.00;;;2.97;;
36321;SDS011;23564;48.290;11.460;2023-02-01T09:54:26;5.18;;;2.88;;
36321;SDS011;23564;48.290;11.460;2023-02-01T09:59:38;9.02;;;3.13;;
36321;SDS011;23564;48.290;11.460;2023-02-01T10:02:08;5.50;;;3.10;;
36321;SDS011;23564;48.290;11.460;2023-02-01T10:04:59;5.05;;;3.08;;
36321;SDS011;23564;48.290;11.460;2023-02-01T10:10:43;4.80;;;2.72;;
36321;SDS011;23564;48.290;11.460;2023-02-01T10:18:51;4.68;;;2.80;;
36321;SDS011;23564;48.290;11.460;2023-02-01T10:21:39;10.73;;;2.80;;
36321;SDS011;23564;48.290;11.460;2023-02-01T10:24:36;5.45;;;3.22;;
36321;SDS011;23564;48.290;11.460;2023-02-01T10:27:12;5.40;;;2.92;;
36321;SDS011;23564;48.290;11.460;2023-02-01T10:29:39;12.43;;;3.05;;
36321;SDS011;23564;48.290;11.460;2023-02-01T10:32:17;5.63;;;2.67;;
36321;SDS011;23564;48.290;11.460;2023-02-01T10:34:50;7.15;;;2.72;;
36321;SDS011;23564;48.290;11.460;2023-02-01T10:37:29;6.72;;;3.15;;
36321;SDS011;23564;48.290;11.460;2023-02-01T10:39:57;6.25;;;3.03;;
36321;SDS011;23564;48.290;11.460;2023-02-01T10:42:27;4.22;;;1.95;;
36321;SDS011;23564;48.290;11.460;2023-02-01T10:44:57;4.40;;;2.65;;
36321;SDS011;23564;48.290;11.460;2023-02-01T10:47:25;5.15;;;2.53;;
36321;SDS011;23564;48.290;11.460;2023-02-01T10:50:00;4.43;;;2.78;;
36321;SDS011;23564;48.290;11.460;2023-02-01T10:52:54;5.57;;;2.83;;
36321;SDS011;23564;48.290;11.460;2023-02-01T10:55:27;4.45;;;2.22;;
36321;SDS011;23564;48.290;11.460;2023-02-01T10:57:59;10.23;;;4.65;;
36321;SDS011;23564;48.290;11.460;2023-02-01T11:01:30;8.57;;;4.30;;
36321;SDS011;23564;48.290;11.460;2023-02-01T11:05:57;8.40;;;2.55;;
36321;SDS011;23564;48.290;11.460;2023-02-01T11:08:23;9.70;;;3.40;;
36321;SDS011;23564;48.290;11.460;2023-02-01T11:10:56;10.23;;;3.03;;
36321;SDS011;23564;48.290;11.460;2023-02-01T11:13:31;4.40;;;2.60;;
36321;SDS011;23564;48.290;11.460;2023-02-01T11:16:00;6.75;;;3.50;;
36321;SDS011;23564;48.290;11.460;2023-02-01T11:18:29;5.30;;;2.60;;
36321;SDS011;23564;48.290;11.460;2023-02-01T11:20:56;4.60;;;2.70;;
36321;SDS011;23564;48.290;11.460;2023-02-01T11:23:24;5.95;;;2.60;;
36321;SDS011;23564;48.290;11.460;2023-02-01T11:28:19;9.95;;;4.43;;
36321;SDS011;23564;48.290;11.460;2023-02-01T11:30:48;6.65;;;3.35;;
36321;SDS011;23564;48.290;11.460;2023-02-01T11:33:18;6.18;;;3.10;;
36321;SDS011;23564;48.290;11.460;2023-02-01T11:35:46;7.20;;;2.72;;
36321;SDS011;23564;48.290;11.460;2023-02-01T11:38:26;4.97;;;2.95;;
36321;SDS011;23564;48.290;11.460;2023-02-01T11:40:54;6.07;;;2.70;;
36321;SDS011;23564;48.290;11.460;2023-02-01T11:43:24;6.25;;;3.15;;
36321;SDS011;23564;48.290;11.460;2023-02-01T11:45:55;6.32;;;3.17;;
36321;SDS011;23564;48.290;11.460;2023-02-01T11:48:23;4.82;;;2.65;;
36321;SDS011;23564;48.290;11.460;2023-02-01T11:54:40;5.20;;;2.83;;
36321;SDS011;23564;48.290;11.460;2023-02-01T11:56:51;5.90;;;3.03;;
36321;SDS011;23564;48.290;11.460;2023-02-01T12:13:31;7.18;;;3.13;;
36321;SDS011;23564;48.290;11.460;2023-02-01T12:19:22;8.52;;;3.28;;
36321;SDS011;23564;48.290;11.460;2023-02-01T12:24:40;7.53;;;2.95;;
36321;SDS011;23564;48.290;11.460;2023-02-01T12:33:18;10.23;;;3.72;;
36321;SDS011;23564;48.290;11.460;2023-02-01T12:36:07;10.75;;;3.13;;
36321;SDS011;23564;48.290;11.460;2023-02-01T12:44:32;7.30;;;2.95;;
36321;SDS011;23564;48.290;11.460;2023-02-01T12:50:20;4.82;;;2.35;;
36321;SDS011;23564;48.290;11.460;2023-02-01T12:53:00;7.35;;;2.63;;
36321;SDS011;23564;48.290;11.460;2023-02-01T12:55:52;18.38;;;3.42;;
36321;SDS011;23564;48.290;11.460;2023-02-01T12:58:21;10.45;;;2.92;;
36321;SDS011;23564;48.290;11.460;2023-02-01T13:01:05;12.32;;;3.00;;
36321;SDS011;23564;48.290;11.460;2023-02-01T13:03:40;10.13;;;2.70;;
36321;SDS011;23564;48.290;11.460;2023-02-01T13:06:19;7.60;;;2.85;;
36321;SDS011;23564;48.290;11.460;2023-02-01T13:09:02;5.78;;;3.10;;
36321;SDS011;23564;48.290;11.460;2023-02-01T13:11:43;6.93;;;2.85;;
36321;SDS011;23564;48.290;11.460;2023-02-01T13:16:49;7.68;;;2.85;;
36321;SDS011;23564;48.290;11.460;2023-02-01T13:19:20;11.60;;;4.07;;
36321;SDS011;23564;48.290;11.460;2023-02-01T13:22:03;7.35;;;2.95;;
36321;SDS011;23564;48.290;11.460;2023-02-01T13:27:19;8.40;;;3.10;;
36321;SDS011;23564;48.290;11.460;2023-02-01T13:29:47;7.03;;;2.40;;
36321;SDS011;23564;48.290;11.460;2023-02-01T13:32:46;6.57;;;2.75;;
36321;SDS011;23564;48.290;11.460;2023-02-01T13:43:52;6.70;;;3.58;;
36321;SDS011;23564;48.290;11.460;2023-02-01T13:46:20;6.28;;;2.92;;
36321;SDS011;23564;48.290;11.460;2023-02-01T13:48:51;7.60;;;3.30;;
36321;SDS011;23564;48.290;11.460;2023-02-01T13:51:32;5.38;;;2.80;;
36321;SDS011;23564;48.290;11.460;2023-02-01T13:54:00;5.28;;;3.17;;
36321;SDS011;23564;48.290;11.460;2023-02-01T13:56:26;7.50;;;3.20;;
36321;SDS011;23564;48.290;11.460;2023-02-01T13:58:52;7.70;;;3.55;;
36321;SDS011;23564;48.290;11.460;2023-02-01T14:03:47;5.60;;;3.03;;
36321;SDS011;23564;48.290;11.460;2023-02-01T14:11:40;4.97;;;2.80;;
36321;SDS011;23564;48.290;11.460;2023-02-01T14:16:44;6.10;;;4.10;;
36321;SDS011;23564;48.290;11.460;2023-02-01T14:19:27;7.47;;;3.60;;
36321;SDS011;23564;48.290;11.460;2023-02-01T14:22:00;6.65;;;3.10;;
36321;SDS011;23564;48.290;11.460;2023-02-01T14:24:49;6.25;;;3.25;;
36321;SDS011;23564;48.290;11.460;2023-02-01T14:27:19;8.85;;;3.85;;
36321;SDS011;23564;48.290;11.460;2023-02-01T14:29:51;7.93;;;3.35;;
36321;SDS011;23564;48.290;11.460;2023-02-01T14:32:38;6.78;;;3.17;;
36321;SDS011;23564;48.290;11.460;2023-02-01T14:35:18;10.43;;;3.33;;
36321;SDS011;23564;48.290;11.460;2023-02-01T14:37:52;6.20;;;3.05;;
36321;SDS011;23564;48.290;11.460;2023-02-01T14:40:24;10.35;;;3.47;;
36321;SDS011;23564;48.290;11.460;2023-02-01T14:42:52;6.75;;;3.28;;
36321;SDS011;23564;48.290;11.460;2023-02-01T14:50:26;8.13;;;3.28;;
36321;SDS011;23564;48.290;11.460;2023-02-01T14:55:50;7.00;;;2.42;;
36321;SDS011;23564;48.290;11.460;2023-02-01T14:58:40;11.48;;;3.00;;
36321;SDS011;23564;48.290;11.460;2023-02-01T15:03:51;6.10;;;2.72;;
36321;SDS011;23564;48.290;11.460;2023-02-01T15:09:44;8.60;;;2.42;;
36321;SDS011;23564;48.290;11.460;2023-02-01T15:12:02;10.57;;;1.80;;
36321;SDS011;23564;48.290;11.460;2023-02-01T15:14:41;7.32;;;1.92;;
36321;SDS011;23564;48.290;11.460;2023-02-01T15:17:27;9.68;;;2.78;;
36321;SDS011;23564;48.290;11.460;2023-02-01T15:20:20;9.45;;;2.17;;
36321;SDS011;23564;48.290;11.460;2023-02-01T15:22:53;8.35;;;2.05;;
36321;SDS011;23564;48.290;11.460;2023-02-01T15:25:25;6.80;;;1.92;;
36321;SDS011;23564;48.290;11.460;2023-02-01T15:27:52;9.43;;;1.63;;
36321;SDS011;23564;48.290;11.460;2023-02-01T15:30:23;6.13;;;1.90;;
36321;SDS011;23564;48.290;11.460;2023-02-01T15:32:51;4.43;;;1.70;;
36321;SDS011;23564;48.290;11.460;2023-02-01T15:35:39;12.57;;;1.85;;
36321;SDS011;23564;48.290;11.460;2023-02-01T15:38:30;7.90;;;2.00;;
36321;SDS011;23564;48.290;11.460;2023-02-01T15:41:04;6.13;;;1.90;;
36321;SDS011;23564;48.290;11.460;2023-02-01T15:46:14;6.18;;;1.70;;
36321;SDS011;23564;48.290;11.460;2023-02-01T15:48:48;7.78;;;2.05;;
36321;SDS011;23564;48.290;11.460;2023-02-01T15:51:19;13.65;;;2.53;;
36321;SDS011;23564;48.290;11.460;2023-02-01T15:53:51;6.95;;;2.35;;
36321;SDS011;23564;48.290;11.460;2023-02-01T15:56:23;11.25;;;2.30;;
36321;SDS011;23564;48.290;11.460;2023-02-01T15:58:53;7.20;;;2.20;;
36321;SDS011;23564;48.290;11.460;2023-02-01T16:01:21;6.95;;;2.17;;
36321;SDS011;23564;48.290;11.460;2023-02-01T16:03:47;9.15;;;2.10;;
36321;SDS011;23564;48.290;11.460;2023-02-01T16:08:50;7.25;;;2.33;;
36321;SDS011;23564;48.290;11.460;2023-02-01T16:11:24;8.35;;;2.47;;
36321;SDS011;23564;48.290;11.460;2023-02-01T16:13:55;4.63;;;1.90;;
36321;SDS011;23564;48.290;11.460;2023-02-01T16:16:22;8.02;;;1.85;;
36321;SDS011;23564;48.290;11.460;2023-02-01T16:18:48;5.22;;;2.40;;
36321;SDS011;23564;48.290;11.460;2023-02-01T16:21:13;4.38;;;1.80;;
36321;SDS011;23564;48.290;11.460;2023-02-01T16:23:39;6.10;;;1.58;;
36321;SDS011;23564;48.290;11.460;2023-02-01T16:26:04;6.03;;;1.85;;
36321;SDS011;23564;48.290;11.460;2023-02-01T16:28:31;10.48;;;2.00;;
36321;SDS011;23564;48.290;11.460;2023-02-01T16:30:56;10.20;;;2.15;;
36321;SDS011;23564;48.290;11.460;2023-02-01T16:33:23;4.82;;;1.65;;
36321;SDS011;23564;48.290;11.460;2023-02-01T16:35:49;8.55;;;2.08;;
36321;SDS011;23564;48.290;11.460;2023-02-01T16:38:15;11.48;;;2.90;;
36321;SDS011;23564;48.290;11.460;2023-02-01T16:40:44;9.27;;;2.83;;
36321;SDS011;23564;48.290;11.460;2023-02-01T16:43:14;6.15;;;2.38;;
36321;SDS011;23564;48.290;11.460;2023-02-01T16:45:46;8.02;;;2.63;;
36321;SDS011;23564;48.290;11.460;2023-02-01T16:50:49;6.68;;;2.47;;
36321;SDS011;23564;48.290;11.460;2023-02-01T16:53:17;10.75;;;3.55;;
36321;SDS011;23564;48.290;11.460;2023-02-01T16:55:43;10.23;;;3.08;;
36321;SDS011;23564;48.290;11.460;2023-02-01T16:58:11;6.80;;;2.90;;
36321;SDS011;23564;48.290;11.460;2023-02-01T17:00:37;14.43;;;3.95;;
36321;SDS011;23564;48.290;11.460;2023-02-01T17:03:03;8.85;;;2.78;;
36321;SDS011;23564;48.290;11.460;2023-02-01T17:05:30;7.47;;;2.70;;
36321;SDS011;23564;48.290;11.460;2023-02-01T17:07:57;7.38;;;2.75;;